createdAt,value
2022-09-12T00:01:49.540Z,10.95
2022-09-12T00:04:16.117Z,12.05
2022-09-12T00:06:42.694Z,11.50
2022-09-12T00:09:14.526Z,11.13
2022-09-12T00:11:44.623Z,14.18
2022-09-12T00:14:14.709Z,11.98
2022-09-12T00:16:41.349Z,11.57
2022-09-12T00:19:08.448Z,11.63
2022-09-12T00:21:37.203Z,11.35
2022-09-12T00:24:04.388Z,11.48
2022-09-12T00:26:31.435Z,11.18
2022-09-12T00:28:58.127Z,11.30
2022-09-12T00:31:26.421Z,13.57
2022-09-12T00:33:56.311Z,12.63
2022-09-12T00:36:24.373Z,11.70
2022-09-12T00:38:51.692Z,11.98
2022-09-12T00:41:33.806Z,11.45
2022-09-12T00:44:05.590Z,13.32
2022-09-12T00:46:46.383Z,12.13
2022-09-12T00:49:15.946Z,11.82
2022-09-12T00:51:48.712Z,11.38
2022-09-12T00:54:20.730Z,11.95
2022-09-12T00:56:51.675Z,10.93
2022-09-12T00:59:22.372Z,12.75
2022-09-12T01:01:50.893Z,12.95
2022-09-12T01:04:21.307Z,12.30
2022-09-12T01:06:49.442Z,11.85
2022-09-12T01:09:20.684Z,11.77
2022-09-12T01:11:49.029Z,11.07
2022-09-12T01:14:17.627Z,12.57
2022-09-12T01:16:45.692Z,13.70
2022-09-12T01:19:49.169Z,12.95
2022-09-12T01:22:21.284Z,14.43
2022-09-12T01:25:10.057Z,13.85
2022-09-12T01:27:56.785Z,12.73
2022-09-12T01:30:32.523Z,14.20
2022-09-12T01:33:07.668Z,14.07
2022-09-12T01:35:44.919Z,15.90
2022-09-12T01:38:23.711Z,12.77
2022-09-12T01:41:09.176Z,13.40
2022-09-12T01:43:48.246Z,12.50
2022-09-12T01:46:19.273Z,13.48
2022-09-12T01:48:57.640Z,14.13
2022-09-12T01:51:58.218Z,14.60
2022-09-12T01:54:40.053Z,11.27
2022-09-12T01:57:14.305Z,12.93
2022-09-12T01:59:45.916Z,13.30
2022-09-12T02:02:21.780Z,13.20
2022-09-12T02:05:03.951Z,13.60
2022-09-12T02:07:41.423Z,10.95
2022-09-12T02:10:15.967Z,12.65
2022-09-12T02:12:48.386Z,12.10
2022-09-12T02:15:18.938Z,10.77
2022-09-12T02:17:49.556Z,13.07
2022-09-12T02:20:43.980Z,13.90
2022-09-12T02:23:10.940Z,13.98
2022-09-12T02:25:43.160Z,12.17
2022-09-12T02:28:21.785Z,13.27
2022-09-12T02:31:15.182Z,11.00
2022-09-12T02:34:08.099Z,10.60
2022-09-12T02:37:15.315Z,12.50
2022-09-12T02:39:45.178Z,11.07
2022-09-12T02:42:13.078Z,13.65
2022-09-12T02:44:40.024Z,12.15
2022-09-12T02:47:18.035Z,11.68
2022-09-12T02:49:45.129Z,11.80
2022-09-12T02:52:11.594Z,11.95
2022-09-12T02:54:38.253Z,12.07
2022-09-12T02:57:16.317Z,10.98
2022-09-12T02:59:44.944Z,11.07
2022-09-12T03:02:27.979Z,11.50
2022-09-12T03:05:21.925Z,12.57
2022-09-12T03:08:03.001Z,11.60
2022-09-12T03:10:57.619Z,13.77
2022-09-12T03:13:54.326Z,12.63
2022-09-12T03:16:39.835Z,11.57
2022-09-12T03:19:15.097Z,13.98
2022-09-12T03:21:56.706Z,13.63
2022-09-12T03:24:33.133Z,11.43
2022-09-12T03:27:16.263Z,12.50
2022-09-12T03:29:46.623Z,15.77
2022-09-12T03:32:13.738Z,14.38
2022-09-12T03:34:40.171Z,14.10
2022-09-12T03:37:06.566Z,13.70
2022-09-12T03:39:33.899Z,12.02
2022-09-12T03:42:00.309Z,13.45
2022-09-12T03:44:26.795Z,12.82
2022-09-12T03:46:53.171Z,12.82
2022-09-12T03:49:19.780Z,12.88
2022-09-12T03:51:46.196Z,12.90
2022-09-12T03:54:12.623Z,13.10
2022-09-12T03:56:41.469Z,12.70
2022-09-12T03:59:08.163Z,12.80
2022-09-12T04:01:34.844Z,14.02
2022-09-12T04:04:01.394Z,13.75
2022-09-12T04:06:27.851Z,12.10
2022-09-12T04:08:56.069Z,12.15
2022-09-12T04:11:22.963Z,12.68
2022-09-12T04:13:50.818Z,11.20
2022-09-12T04:16:18.055Z,12.55
2022-09-12T04:18:45.488Z,13.70
2022-09-12T04:21:15.591Z,12.38
2022-09-12T04:23:42.581Z,13.23
2022-09-12T04:26:09.643Z,12.13
2022-09-12T04:28:37.982Z,12.20
2022-09-12T04:31:12.162Z,15.07
2022-09-12T04:33:39.215Z,11.63
2022-09-12T04:36:08.057Z,11.93
2022-09-12T04:38:35.513Z,10.82
2022-09-12T04:41:10.842Z,10.98
2022-09-12T04:43:37.238Z,11.48
2022-09-12T04:46:08.096Z,12.20
2022-09-12T04:48:34.678Z,10.18
2022-09-12T04:51:18.582Z,9.88
2022-09-12T04:53:49.505Z,11.35
2022-09-12T04:56:16.659Z,10.90
2022-09-12T04:58:43.224Z,11.80
2022-09-12T05:01:17.260Z,10.73
2022-09-12T05:03:44.936Z,11.95
2022-09-12T05:06:14.448Z,11.88
2022-09-12T05:08:41.208Z,11.70
2022-09-12T05:11:13.266Z,11.50
2022-09-12T05:13:40.024Z,11.73
2022-09-12T05:16:07.638Z,11.07
2022-09-12T05:18:35.673Z,11.93
2022-09-12T05:21:04.817Z,11.23
2022-09-12T05:23:31.750Z,11.50
2022-09-12T05:25:59.711Z,11.50
2022-09-12T05:28:30.980Z,11.18
2022-09-12T05:31:33.023Z,10.95
2022-09-12T05:33:59.609Z,12.20
2022-09-12T05:36:29.156Z,12.82
2022-09-12T05:38:56.248Z,12.50
2022-09-12T05:41:25.704Z,12.32
2022-09-12T05:43:54.550Z,11.73
2022-09-12T05:46:23.054Z,13.18
2022-09-12T05:48:55.086Z,12.98
2022-09-12T05:51:28.339Z,15.05
2022-09-12T05:54:01.079Z,13.65
2022-09-12T05:56:30.087Z,14.55
2022-09-12T05:58:59.426Z,13.32
2022-09-12T06:01:27.457Z,13.52
2022-09-12T06:03:56.397Z,14.32
2022-09-12T06:06:24.800Z,13.27
2022-09-12T06:08:54.608Z,13.68
2022-09-12T06:11:23.023Z,14.13
2022-09-12T06:13:50.308Z,12.98
2022-09-12T06:16:22.390Z,14.07
2022-09-12T06:18:50.757Z,14.50
2022-09-12T06:21:17.823Z,13.10
2022-09-12T06:23:46.086Z,13.25
2022-09-12T06:26:13.814Z,15.65
2022-09-12T06:28:41.907Z,16.60
2022-09-12T06:31:09.735Z,13.85
2022-09-12T06:33:38.928Z,14.15
2022-09-12T06:36:12.074Z,14.40
2022-09-12T06:38:39.919Z,14.75
2022-09-12T06:41:08.518Z,13.45
2022-09-12T06:43:35.465Z,13.63
2022-09-12T06:46:02.325Z,15.68
2022-09-12T06:48:29.323Z,13.75
2022-09-12T06:51:00.838Z,13.55
2022-09-12T06:53:28.545Z,14.55
2022-09-12T06:56:02.878Z,14.65
2022-09-12T06:58:30.002Z,15.57
2022-09-12T07:01:11.198Z,14.93
2022-09-12T07:03:38.643Z,14.55
2022-09-12T07:06:13.418Z,14.68
2022-09-12T07:08:40.886Z,16.10
2022-09-12T07:11:21.686Z,15.35
2022-09-12T07:13:50.613Z,13.02
2022-09-12T07:16:19.913Z,13.18
2022-09-12T07:18:51.666Z,13.45
2022-09-12T07:21:18.098Z,13.10
2022-09-12T07:23:45.370Z,12.80
2022-09-12T07:26:13.106Z,12.55
2022-09-12T07:28:39.976Z,10.93
2022-09-12T07:31:26.397Z,11.57
2022-09-12T07:33:54.828Z,11.55
2022-09-12T07:36:24.541Z,13.60
2022-09-12T07:38:57.867Z,11.30
2022-09-12T07:41:33.824Z,12.20
2022-09-12T07:44:02.073Z,12.57
2022-09-12T07:46:30.053Z,12.90
2022-09-12T07:48:57.924Z,13.07
2022-09-12T07:51:25.820Z,11.60
2022-09-12T07:53:52.309Z,10.77
2022-09-12T07:56:19.980Z,11.20
2022-09-12T07:58:46.899Z,12.32
2022-09-12T08:01:19.238Z,15.30
2022-09-12T08:03:48.139Z,11.70
2022-09-12T08:06:16.922Z,11.77
2022-09-12T08:08:43.373Z,11.07
2022-09-12T08:11:12.825Z,15.20
2022-09-12T08:13:41.061Z,11.32
2022-09-12T08:16:11.966Z,11.40
2022-09-12T08:18:39.093Z,13.73
2022-09-12T08:21:08.193Z,13.48
2022-09-12T08:23:34.566Z,10.68
2022-09-12T08:26:06.314Z,11.98
2022-09-12T08:28:35.425Z,13.48
2022-09-12T08:31:04.257Z,12.57
2022-09-12T08:33:33.386Z,12.30
2022-09-12T08:36:10.106Z,11.25
2022-09-12T08:38:37.949Z,12.07
2022-09-12T08:41:11.449Z,12.35
2022-09-12T08:44:09.218Z,12.70
2022-09-12T08:47:09.499Z,12.23
2022-09-12T08:49:42.127Z,11.15
2022-09-12T08:52:25.840Z,12.30
2022-09-12T08:54:52.548Z,12.55
2022-09-12T08:57:19.002Z,12.65
2022-09-12T08:59:46.259Z,11.40
2022-09-12T09:02:46.843Z,15.20
2022-09-12T09:05:40.421Z,11.55
2022-09-12T09:10:49.759Z,11.27
2022-09-12T09:14:13.999Z,14.57
2022-09-12T09:19:24.111Z,14.02
2022-09-12T09:21:58.840Z,12.27
2022-09-12T09:24:36.616Z,12.30
2022-09-12T09:27:29.919Z,12.52
2022-09-12T09:32:30.886Z,12.32
2022-09-12T09:34:57.306Z,10.68
2022-09-12T09:37:58.784Z,12.93
2022-09-12T09:40:32.446Z,11.95
2022-09-12T09:43:18.254Z,12.57
2022-09-12T09:45:47.383Z,11.48
2022-09-12T09:48:34.217Z,10.70
2022-09-12T09:51:02.897Z,13.85
2022-09-12T09:53:39.939Z,11.80
2022-09-12T09:56:14.589Z,9.70
2022-09-12T09:58:41.435Z,10.50
2022-09-12T10:01:27.479Z,12.20
2022-09-12T10:03:55.715Z,9.35
2022-09-12T10:06:34.160Z,11.75
2022-09-12T10:09:07.217Z,10.90
2022-09-12T10:11:33.660Z,10.30
2022-09-12T10:14:01.252Z,10.48
2022-09-12T10:16:48.360Z,8.30
2022-09-12T10:19:24.554Z,10.85
2022-09-12T10:21:54.377Z,9.90
2022-09-12T10:24:36.670Z,10.35
2022-09-12T10:27:12.427Z,12.47
2022-09-12T10:29:48.377Z,13.52
2022-09-12T10:32:28.610Z,10.38
2022-09-12T10:35:03.355Z,10.65
2022-09-12T10:37:35.951Z,10.30
2022-09-12T10:40:05.414Z,8.73
2022-09-12T10:42:42.634Z,12.38
2022-09-12T10:45:38.731Z,11.50
2022-09-12T10:48:29.270Z,10.27
2022-09-12T10:50:59.490Z,8.75
2022-09-12T10:53:43.116Z,19.25
2022-09-12T10:56:13.767Z,8.73
2022-09-12T10:58:54.630Z,8.30
2022-09-12T11:01:38.743Z,8.02
2022-09-12T11:04:42.741Z,9.70
2022-09-12T11:07:29.607Z,9.07
2022-09-12T11:10:39.570Z,8.77
2022-09-12T11:13:29.212Z,8.48
2022-09-12T11:16:25.261Z,7.70
2022-09-12T11:19:22.774Z,7.85
2022-09-12T11:22:17.529Z,7.40
2022-09-12T11:25:02.698Z,7.47
2022-09-12T11:27:32.110Z,8.27
2022-09-12T11:30:03.842Z,8.25
2022-09-12T11:32:42.756Z,7.88
2022-09-12T11:35:11.084Z,6.75
2022-09-12T11:38:00.318Z,6.50
2022-09-12T11:40:55.729Z,8.40
2022-09-12T11:43:35.899Z,6.93
2022-09-12T11:46:23.753Z,7.80
2022-09-12T11:48:59.237Z,7.38
2022-09-12T11:51:33.054Z,6.72
2022-09-12T11:54:05.729Z,6.50
2022-09-12T11:56:35.714Z,9.88
2022-09-12T11:59:11.263Z,7.30
2022-09-12T12:01:48.334Z,6.60
2022-09-12T12:04:20.502Z,6.97
2022-09-12T12:06:49.964Z,9.00
2022-09-12T12:09:16.746Z,6.30
2022-09-12T12:11:48.697Z,6.18
2022-09-12T12:14:23.903Z,6.03
2022-09-12T12:16:50.829Z,6.53
2022-09-12T12:19:17.185Z,7.50
2022-09-12T12:21:49.898Z,6.53
2022-09-12T12:24:23.348Z,5.88
2022-09-12T12:27:05.017Z,6.55
2022-09-12T12:29:31.361Z,6.13
2022-09-12T12:32:07.675Z,5.63
2022-09-12T12:34:42.019Z,5.50
2022-09-12T12:37:25.347Z,5.78
2022-09-12T12:40:01.041Z,6.22
2022-09-12T12:42:34.091Z,5.13
2022-09-12T12:45:09.433Z,5.82
2022-09-12T12:47:35.757Z,4.72
2022-09-12T12:50:08.369Z,5.07
2022-09-12T12:53:00.835Z,4.43
2022-09-12T12:55:42.496Z,4.20
2022-09-12T12:58:38.650Z,4.95
2022-09-12T13:01:04.958Z,4.90
2022-09-12T13:03:34.027Z,4.70
2022-09-12T13:06:03.205Z,5.22
2022-09-12T13:08:32.795Z,4.90
2022-09-12T13:11:04.685Z,5.00
2022-09-12T13:13:37.981Z,4.78
2022-09-12T13:16:04.866Z,4.15
2022-09-12T13:19:01.363Z,4.97
2022-09-12T13:21:27.985Z,4.90
2022-09-12T13:24:06.189Z,4.97
2022-09-12T13:26:35.903Z,4.88
2022-09-12T13:29:18.621Z,4.93
2022-09-12T13:32:03.470Z,4.05
2022-09-12T13:34:35.491Z,4.50
2022-09-12T13:37:19.161Z,4.07
2022-09-12T13:39:47.717Z,4.45
2022-09-12T13:42:36.175Z,4.38
2022-09-12T13:45:07.654Z,4.22
2022-09-12T13:47:41.933Z,4.90
2022-09-12T13:50:14.247Z,3.97
2022-09-12T13:52:40.683Z,4.20
2022-09-12T13:55:34.257Z,4.53
2022-09-12T13:58:16.534Z,3.85
2022-09-12T14:00:43.072Z,3.90
2022-09-12T14:03:48.178Z,4.10
2022-09-12T14:06:18.151Z,4.18
2022-09-12T14:08:47.089Z,4.32
2022-09-12T14:11:28.453Z,3.47
2022-09-12T14:13:55.790Z,4.05
2022-09-12T14:16:23.817Z,4.10
2022-09-12T14:18:51.774Z,3.67
2022-09-12T14:21:34.050Z,3.80
2022-09-12T14:24:02.414Z,4.67
2022-09-12T14:26:33.318Z,3.95
2022-09-12T14:29:01.154Z,4.40
2022-09-12T14:31:34.087Z,3.88
2022-09-12T14:36:51.417Z,4.13
2022-09-12T14:39:23.345Z,4.25
2022-09-12T14:41:51.473Z,4.00
2022-09-12T14:44:24.571Z,3.72
2022-09-12T14:46:51.899Z,3.90
2022-09-12T14:49:36.530Z,4.00
2022-09-12T14:52:05.872Z,4.57
2022-09-12T14:54:33.700Z,4.35
2022-09-12T14:57:04.085Z,4.13
2022-09-12T14:59:33.465Z,4.63
2022-09-12T15:02:20.967Z,4.05
2022-09-12T15:04:52.650Z,3.80
2022-09-12T15:07:36.169Z,4.97
2022-09-12T15:10:04.652Z,4.60
2022-09-12T15:12:31.369Z,3.97
2022-09-12T15:15:12.942Z,4.82
2022-09-12T15:17:39.340Z,4.38
2022-09-12T15:20:06.485Z,4.38
2022-09-12T15:22:34.461Z,4.38
2022-09-12T15:25:00.927Z,3.90
2022-09-12T15:27:27.311Z,4.43
2022-09-12T15:29:54.153Z,3.83
2022-09-12T15:32:25.462Z,3.92
2022-09-12T15:34:52.758Z,3.92
2022-09-12T15:37:20.702Z,13.15
2022-09-12T15:39:47.884Z,4.53
2022-09-12T15:42:16.850Z,4.35
2022-09-12T15:44:43.437Z,4.57
2022-09-12T15:47:13.564Z,4.15
2022-09-12T15:49:40.736Z,4.10
2022-09-12T15:52:11.487Z,3.92
2022-09-12T15:54:37.832Z,3.80
2022-09-12T15:57:04.323Z,4.93
2022-09-12T15:59:31.046Z,5.13
2022-09-12T16:01:58.189Z,4.60
2022-09-12T16:04:27.561Z,4.28
2022-09-12T16:06:55.654Z,5.63
2022-09-12T16:09:23.200Z,5.75
2022-09-12T16:11:50.189Z,4.60
2022-09-12T16:14:18.598Z,3.85
2022-09-12T16:16:51.531Z,4.07
2022-09-12T16:21:44.776Z,4.30
2022-09-12T16:24:11.463Z,3.97
2022-09-12T16:26:37.889Z,4.25
2022-09-12T16:29:04.323Z,4.40
2022-09-12T16:31:30.890Z,4.70
2022-09-12T16:33:57.313Z,4.22
2022-09-12T16:36:24.364Z,3.85
2022-09-12T16:38:53.268Z,3.45
2022-09-12T16:41:24.989Z,4.03
2022-09-12T16:43:51.781Z,3.50
2022-09-12T16:46:21.229Z,4.30
2022-09-12T16:48:52.497Z,4.60
2022-09-12T16:51:22.770Z,4.28
2022-09-12T16:53:49.886Z,4.07
2022-09-12T16:56:16.799Z,4.10
2022-09-12T16:58:43.568Z,6.13
2022-09-12T17:01:19.196Z,8.63
2022-09-12T17:03:45.961Z,6.18
2022-09-12T17:06:18.140Z,5.18
2022-09-12T17:08:47.570Z,4.55
2022-09-12T17:11:17.136Z,4.20
2022-09-12T17:14:07.508Z,3.40
2022-09-12T17:16:36.806Z,5.43
2022-09-12T17:19:04.801Z,3.60
2022-09-12T17:21:32.133Z,4.25
2022-09-12T17:23:59.203Z,3.35
2022-09-12T17:26:26.622Z,3.70
2022-09-12T17:28:53.287Z,3.85
2022-09-12T17:31:19.905Z,4.32
2022-09-12T17:33:46.867Z,3.47
2022-09-12T17:36:16.404Z,3.83
2022-09-12T17:38:44.705Z,4.65
2022-09-12T17:41:15.873Z,5.15
2022-09-12T17:43:42.365Z,4.35
2022-09-12T17:46:08.837Z,4.15
2022-09-12T17:48:35.921Z,4.03
2022-09-12T17:51:10.071Z,7.95
2022-09-12T17:53:37.159Z,7.80
2022-09-12T17:56:04.735Z,7.32
2022-09-12T17:58:32.342Z,5.32
2022-09-12T18:01:22.825Z,4.03
2022-09-12T18:03:49.469Z,4.43
2022-09-12T18:06:15.954Z,4.20
2022-09-12T18:08:42.372Z,5.00
2022-09-12T18:11:08.833Z,4.68
2022-09-12T18:13:35.428Z,4.78
2022-09-12T18:16:08.339Z,4.90
2022-09-12T18:18:36.011Z,4.55
2022-09-12T18:21:05.310Z,4.05
2022-09-12T18:23:32.500Z,4.15
2022-09-12T18:26:00.705Z,4.32
2022-09-12T18:28:28.105Z,5.10
2022-09-12T18:30:54.507Z,4.18
2022-09-12T18:33:24.082Z,5.15
2022-09-12T18:35:51.678Z,4.13
2022-09-12T18:38:18.435Z,4.47
2022-09-12T18:40:45.322Z,5.63
2022-09-12T18:43:15.374Z,6.93
2022-09-12T18:45:47.515Z,4.70
2022-09-12T18:48:14.601Z,5.90
2022-09-12T18:50:41.404Z,6.10
2022-09-12T18:53:10.281Z,4.55
2022-09-12T18:55:36.975Z,6.00
2022-09-12T18:58:03.474Z,5.53
2022-09-12T19:00:29.974Z,5.07
2022-09-12T19:02:56.366Z,5.72
2022-09-12T19:05:22.912Z,5.35
2022-09-12T19:07:49.272Z,7.72
2022-09-12T19:10:15.861Z,5.88
2022-09-12T19:12:43.055Z,5.05
2022-09-12T19:15:10.070Z,6.00
2022-09-12T19:17:36.697Z,5.20
2022-09-12T19:20:04.501Z,5.32
2022-09-12T19:22:30.888Z,5.72
2022-09-12T19:24:57.358Z,5.63
2022-09-12T19:27:23.791Z,5.57
2022-09-12T19:29:50.199Z,5.45
2022-09-12T19:32:16.765Z,6.00
2022-09-12T19:34:43.240Z,6.38
2022-09-12T19:37:09.596Z,5.45
2022-09-12T19:39:36.015Z,5.63
2022-09-12T19:42:02.455Z,6.22
2022-09-12T19:44:30.176Z,5.38
2022-09-12T19:46:56.522Z,4.40
2022-09-12T19:49:23.213Z,5.38
2022-09-12T19:51:49.615Z,6.00
2022-09-12T19:54:16.028Z,5.38
2022-09-12T19:56:42.430Z,5.90
2022-09-12T19:59:08.908Z,6.10
2022-09-12T20:01:37.072Z,5.55
2022-09-12T20:04:04.256Z,5.10
2022-09-12T20:06:30.683Z,4.60
2022-09-12T20:08:58.516Z,5.40
2022-09-12T20:11:25.667Z,5.30
2022-09-12T20:13:52.553Z,4.15
2022-09-12T20:16:28.791Z,4.10
2022-09-12T20:18:58.801Z,4.82
2022-09-12T20:21:31.392Z,5.75
2022-09-12T20:24:05.952Z,4.90
2022-09-12T20:26:32.964Z,4.90
2022-09-12T20:29:02.153Z,5.72
2022-09-12T20:31:31.839Z,5.90
2022-09-12T20:33:58.924Z,4.88
2022-09-12T20:36:25.881Z,5.82
2022-09-12T20:38:56.457Z,5.07
2022-09-12T20:41:24.577Z,5.35
2022-09-12T20:43:55.662Z,5.00
2022-09-12T20:46:24.477Z,5.50
2022-09-12T20:48:54.608Z,5.90
2022-09-12T20:51:21.993Z,5.43
2022-09-12T20:53:52.169Z,5.68
2022-09-12T20:56:18.559Z,5.93
2022-09-12T20:58:45.007Z,4.63
2022-09-12T21:01:13.606Z,5.63
2022-09-12T21:03:42.092Z,5.00
2022-09-12T21:06:09.918Z,5.43
2022-09-12T21:08:37.143Z,6.95
2022-09-12T21:11:04.379Z,5.72
2022-09-12T21:13:31.507Z,5.45
2022-09-12T21:16:07.518Z,7.15
2022-09-12T21:18:35.254Z,5.20
2022-09-12T21:21:02.490Z,4.70
2022-09-12T21:23:29.173Z,5.63
2022-09-12T21:25:55.679Z,5.57
2022-09-12T21:28:22.793Z,5.50
2022-09-12T21:30:51.423Z,5.93
2022-09-12T21:33:20.469Z,4.68
2022-09-12T21:35:47.877Z,5.35
2022-09-12T21:38:15.536Z,5.00
2022-09-12T21:40:42.070Z,5.57
2022-09-12T21:43:12.578Z,4.68
2022-09-12T21:45:40.525Z,5.15
2022-09-12T21:48:09.453Z,4.95
2022-09-12T21:50:38.917Z,4.72
2022-09-12T21:53:05.325Z,4.70
2022-09-12T21:55:31.730Z,5.30
2022-09-12T21:58:00.477Z,5.35
2022-09-12T22:00:26.983Z,4.82
2022-09-12T22:02:53.674Z,5.10
2022-09-12T22:05:21.183Z,5.90
2022-09-12T22:07:47.652Z,5.75
2022-09-12T22:10:15.972Z,5.40
2022-09-12T22:12:46.062Z,6.20
2022-09-12T22:15:38.947Z,6.78
2022-09-12T22:17:59.953Z,5.10
2022-09-12T22:20:26.536Z,4.90
2022-09-12T22:23:11.908Z,5.43
2022-09-12T22:25:39.466Z,5.88
2022-09-12T22:28:05.951Z,6.75
2022-09-12T22:30:32.317Z,6.13
2022-09-12T22:32:58.709Z,6.20
2022-09-12T22:35:25.388Z,6.13
2022-09-12T22:37:51.933Z,5.65
2022-09-12T22:40:18.340Z,8.10
2022-09-12T22:42:44.735Z,6.35
2022-09-12T22:45:11.448Z,5.78
2022-09-12T22:47:38.552Z,6.05
2022-09-12T22:50:08.861Z,6.15
2022-09-12T22:52:35.244Z,6.05
2022-09-12T22:55:02.092Z,6.40
2022-09-12T22:57:28.555Z,5.65
2022-09-12T22:59:54.946Z,6.93
2022-09-12T23:02:21.403Z,7.03
2022-09-12T23:04:48.485Z,6.70
2022-09-12T23:07:15.316Z,7.13
2022-09-12T23:09:41.987Z,6.65
2022-09-12T23:12:08.439Z,7.53
2022-09-12T23:14:34.808Z,6.82
2022-09-12T23:17:01.456Z,7.22
2022-09-12T23:19:27.876Z,8.18
2022-09-12T23:21:54.427Z,8.02
2022-09-12T23:24:20.862Z,6.45
2022-09-12T23:26:47.694Z,6.22
2022-09-12T23:29:14.114Z,6.72
2022-09-12T23:31:40.565Z,7.00
2022-09-12T23:34:07.012Z,6.97
2022-09-12T23:36:33.529Z,6.10
2022-09-12T23:39:00.221Z,6.30
2022-09-12T23:41:26.741Z,6.32
2022-09-12T23:43:53.605Z,6.60
2022-09-12T23:46:21.143Z,8.30
2022-09-12T23:48:47.747Z,5.90
2022-09-12T23:51:14.344Z,6.50
2022-09-12T23:53:41.571Z,6.32
2022-09-12T23:56:08.379Z,6.65
2022-09-12T23:58:34.815Z,6.45
